Time;durP1;ratioP1;P1;durP2;ratioP2;P2;SDS_P1;SDS_P2;PMS_P1;PMS_P2;Temp;Humidity;BMP_temperature;BMP_pressure;BME280_temperature;BME280_humidity;BME280_pressure;Samples;Min_cycle;Max_cycle;Signal;HPM_P1;HPM_P2
2022/09/06 00:00:50;;;;;;;11.35;4.50;;;;;;;21.26;59.75;100582.53;4091340;29;20413;-67
2022/09/06 00:02:54;;;;;;;9.65;4.00;;;;;;;21.21;59.94;100584.44;4099196;28;20070;-67
2022/09/06 00:04:57;;;;;;;7.47;3.77;;;;;;;21.20;60.32;100581.81;4098329;28;20050;-66
2022/09/06 00:07:00;;;;;;;6.82;3.17;;;;;;;21.20;60.46;100582.72;4096471;28;20138;-67
2022/09/06 00:09:03;;;;;;;5.47;3.30;;;;;;;21.26;60.39;100590.47;4123598;28;20121;-67
2022/09/06 00:11:10;;;;;;;6.63;3.60;;;;;;;21.24;60.10;100576.41;4098702;29;20047;-67
2022/09/06 00:13:13;;;;;;;10.93;3.90;;;;;;;21.22;60.19;100580.03;4097300;28;20130;-67
2022/09/06 00:15:16;;;;;;;7.45;3.50;;;;;;;21.20;59.87;100582.72;4124260;28;20475;-67
2022/09/06 00:17:20;;;;;;;7.20;3.42;;;;;;;21.23;59.73;100573.81;4098690;28;20038;-67
2022/09/06 00:19:23;;;;;;;;;;;;;;;21.03;60.18;100579.66;4100369;29;20138;-67
2022/09/06 00:21:28;;;;;;;8.90;3.55;;;;;;;21.09;60.32;100579.50;4096729;28;19923;-67
2022/09/06 00:23:31;;;;;;;9.15;4.05;;;;;;;21.14;60.22;100576.72;4095087;29;20122;-67
2022/09/06 00:25:34;;;;;;;6.13;3.70;;;;;;;21.20;60.14;100579.19;4096713;29;20122;-67
2022/09/06 00:27:38;;;;;;;7.07;3.50;;;;;;;21.20;59.94;100576.53;4098406;29;20517;-68
2022/09/06 00:29:40;;;;;;;10.18;3.60;;;;;;;21.19;60.05;100573.03;4128217;28;20038;-68
2022/09/06 00:31:43;;;;;;;5.40;3.50;;;;;;;21.20;59.77;100572.13;4099565;28;20486;-68
2022/09/06 00:33:48;;;;;;;11.20;3.88;;;;;;;21.21;59.67;100571.19;4098160;28;20406;-68
2022/09/06 00:35:58;;;;;;;7.05;3.13;;;;;;;21.20;59.90;100565.97;4090877;29;20047;-68
2022/09/06 00:38:02;;;;;;;6.40;3.50;;;;;;;21.17;59.86;100571.34;4097880;28;20413;-68
2022/09/06 00:40:06;;;;;;;8.07;3.30;;;;;;;21.16;59.96;100570.47;4098587;28;20043;-68
2022/09/06 00:42:10;;;;;;;9.65;3.60;;;;;;;21.15;60.18;100575.81;4097203;29;20071;-67
2022/09/06 00:44:13;;;;;;;14.13;3.38;;;;;;;21.15;60.20;100576.66;4095604;28;20401;-68
2022/09/06 00:46:19;;;;;;;9.50;3.60;;;;;;;21.19;60.21;100585.41;4097409;28;20126;-67
2022/09/06 00:48:23;;;;;;;6.25;3.22;;;;;;;21.16;60.53;100577.53;4129159;28;20038;-67
2022/09/06 00:50:28;;;;;;;7.82;3.42;;;;;;;21.15;60.86;100581.97;4098021;28;20042;-67
2022/09/06 00:52:33;;;;;;;7.93;3.33;;;;;;;21.14;60.88;100579.34;4097240;29;20075;-68
2022/09/06 00:54:37;;;;;;;8.55;3.67;;;;;;;21.14;60.88;100582.84;4094106;28;20509;-68
2022/09/06 00:56:43;;;;;;;8.73;4.00;;;;;;;21.12;61.25;100584.69;4095134;28;20040;-68
2022/09/06 00:58:47;;;;;;;7.60;3.28;;;;;;;21.10;61.53;100587.38;4098229;28;20505;-71
2022/09/06 01:00:50;;;;;;;4.00;3.15;;;;;;;21.02;61.37;100584.06;4097467;29;20043;-68
2022/09/06 01:02:54;;;;;;;8.82;3.38;;;;;;;21.01;61.52;100582.34;4097588;28;20432;-68
2022/09/06 01:04:57;;;;;;;5.65;3.72;;;;;;;21.03;61.07;100591.09;4098311;29;20039;-69
2022/09/06 01:07:12;;;;;;;8.35;3.92;;;;;;;21.07;60.88;100590.09;4098368;29;20122;-68
2022/09/06 01:09:26;;;;;;;11.00;3.65;;;;;;;21.08;61.09;100589.22;4098367;28;20545;-68
2022/09/06 01:11:47;;;;;;;5.97;3.10;;;;;;;21.09;60.93;100596.22;4098346;28;20485;-68
2022/09/06 01:13:59;;;;;;;7.47;3.50;;;;;;;21.08;60.83;100596.25;4096184;28;20520;-67
2022/09/06 01:16:11;;;;;;;9.05;4.03;;;;;;;21.08;60.52;100593.59;4123609;28;20043;-67
2022/09/06 01:18:23;;;;;;;7.43;3.72;;;;;;;21.10;60.43;100602.38;4097806;28;20501;-68
2022/09/06 01:20:50;;;;;;;8.05;4.10;;;;;;;21.17;60.17;100611.00;4098788;28;20047;-68
2022/09/06 01:23:23;;;;;;;8.35;4.82;;;;;;;21.10;59.78;100639.41;4099211;28;20039;-68
2022/09/06 01:25:36;;;;;;;7.53;4.60;;;;;;;20.81;59.59;100728.22;4126191;28;20034;-68
2022/09/06 01:28:06;;;;;;;8.02;3.65;;;;;;;20.68;58.66;100732.91;4098339;29;20036;-67
2022/09/06 01:30:12;;;;;;;6.15;3.15;;;;;;;20.70;57.36;100733.72;4093864;28;20110;-68
2022/09/06 01:32:23;;;;;;;7.90;3.17;;;;;;;20.80;56.08;100731.75;4128848;28;20117;-67
2022/09/06 01:34:32;;;;;;;7.72;2.90;;;;;;;20.88;55.54;100737.72;4094939;29;20184;-68
2022/09/06 01:36:42;;;;;;;6.72;2.85;;;;;;;20.97;55.10;100738.38;4126735;28;20038;-68
2022/09/06 01:39:06;;;;;;;6.32;2.40;;;;;;;21.10;53.90;100751.28;4098151;28;20043;-68
2022/09/06 01:41:10;;;;;;;3.80;2.40;;;;;;;21.46;53.19;100750.38;4097134;29;20143;-67
2022/09/06 01:43:22;;;;;;;6.45;2.78;;;;;;;21.63;52.92;100747.31;4097721;28;20540;-67
2022/09/06 01:45:34;;;;;;;6.93;2.90;;;;;;;21.74;52.93;100739.97;4096394;28;20063;-67
2022/09/06 01:47:45;;;;;;;5.35;2.42;;;;;;;21.85;53.02;100734.34;4096927;29;20099;-67
2022/09/06 01:50:02;;;;;;;8.10;2.45;;;;;;;21.90;53.06;100744.81;4112643;28;20133;-67
2022/09/06 01:52:14;;;;;;;3.63;2.05;;;;;;;21.90;53.20;100737.75;4106833;28;20074;-67
2022/09/06 01:54:28;;;;;;;4.32;2.10;;;;;;;21.93;53.39;100737.66;4094434;28;20039;-67
2022/09/06 01:56:39;;;;;;;6.97;3.30;;;;;;;21.96;53.41;100736.69;4129019;28;20117;-67
2022/09/06 01:58:59;;;;;;;6.82;2.45;;;;;;;21.97;53.63;100734.00;4101761;29;20046;-67
2022/09/06 02:01:08;;;;;;;6.10;2.78;;;;;;;21.99;53.80;100715.44;4101046;29;20420;-67
2022/09/06 02:03:21;;;;;;;5.25;2.47;;;;;;;22.13;53.77;100704.44;4100319;28;20054;-68
2022/09/06 02:05:30;;;;;;;5.75;2.85;;;;;;;22.12;54.22;100695.63;4101755;28;20067;-67
2022/09/06 02:07:36;;;;;;;3.97;2.78;;;;;;;22.27;54.18;100682.84;4101032;29;20489;-67
2022/09/06 02:09:42;;;;;;;5.20;2.13;;;;;;;22.12;54.67;100694.75;4099133;28;20182;-67
2022/09/06 02:11:50;;;;;;;3.25;2.08;;;;;;;22.08;55.36;100703.72;4132654;28;20057;-67
2022/09/06 02:13:58;;;;;;;5.45;2.08;;;;;;;22.07;55.69;100697.53;4100024;28;20051;-68
2022/09/06 02:16:02;;;;;;;3.28;2.38;;;;;;;22.09;56.22;100677.19;4099805;29;20067;-67
2022/09/06 02:18:09;;;;;;;;;;;;;;;22.00;56.56;100676.59;4083985;29;20047;-67
2022/09/06 02:20:16;;;;;;;6.20;2.60;;;;;;;21.97;56.91;100675.75;4099810;28;19973;-67
2022/09/06 02:22:23;;;;;;;7.95;2.38;;;;;;;21.99;56.65;100678.38;4131277;28;20392;-68
2022/09/06 02:24:30;;;;;;;4.40;2.20;;;;;;;21.95;57.42;100674.94;4100299;28;20099;-67
2022/09/06 02:26:37;;;;;;;7.53;2.60;;;;;;;21.87;57.75;100669.00;4131420;28;20149;-67
2022/09/06 02:28:40;;;;;;;5.53;1.95;;;;;;;21.84;57.78;100686.75;4101379;28;20031;-67
2022/09/06 02:30:48;;;;;;;5.05;2.20;;;;;;;21.83;57.93;100706.19;4100051;28;20051;-68
2022/09/06 02:32:57;;;;;;;4.95;2.47;;;;;;;21.79;58.24;100730.09;4124659;28;20043;-68
2022/09/06 02:35:08;;;;;;;5.65;2.58;;;;;;;21.68;58.47;100748.03;4132106;28;20081;-67
2022/09/06 02:37:12;;;;;;;4.43;2.58;;;;;;;21.60;58.64;100755.34;4131163;28;20042;-67
2022/09/06 02:39:15;;;;;;;3.30;2.20;;;;;;;21.53;58.93;100773.13;4131300;28;20089;-67
2022/09/06 02:41:22;;;;;;;10.40;2.55;;;;;;;21.50;58.94;100775.84;4095755;29;20039;-67
2022/09/06 02:43:25;;;;;;;4.28;2.47;;;;;;;21.49;59.02;100750.28;4131562;28;20050;-67
2022/09/06 02:45:28;;;;;;;4.13;2.55;;;;;;;21.66;58.88;100738.44;4129523;28;20038;-67
2022/09/06 02:47:33;;;;;;;2.60;2.15;;;;;;;21.77;58.41;100739.88;4101130;28;20039;-67
2022/09/06 02:49:36;;;;;;;3.97;2.15;;;;;;;21.71;58.55;100736.50;4130215;28;20038;-67
2022/09/06 02:51:39;;;;;;;2.97;1.77;;;;;;;21.73;58.47;100716.19;4083906;29;20046;-67
2022/09/06 02:53:42;;;;;;;4.18;1.80;;;;;;;21.79;58.40;100689.53;4099088;28;20058;-67
2022/09/06 02:55:46;;;;;;;4.10;2.40;;;;;;;21.84;58.48;100677.03;4100098;29;20053;-68
2022/09/06 02:57:49;;;;;;;2.33;1.95;;;;;;;21.81;58.54;100676.25;4100922;29;20066;-67
2022/09/06 02:59:52;;;;;;;3.53;2.00;;;;;;;21.69;59.02;100675.69;4099427;28;20047;-68
2022/09/06 03:01:54;;;;;;;3.42;2.00;;;;;;;21.65;59.46;100689.06;4099858;29;20262;-67
2022/09/06 03:03:59;;;;;;;4.13;2.20;;;;;;;21.70;59.14;100687.13;4099605;28;20051;-67
2022/09/06 03:06:02;;;;;;;5.68;2.60;;;;;;;21.82;58.57;100686.81;4099972;28;20043;-67
2022/09/06 03:08:05;;;;;;;3.50;2.55;;;;;;;21.85;58.49;100685.84;4099439;28;20131;-67
2022/09/06 03:10:09;;;;;;;5.70;2.88;;;;;;;21.74;58.71;100694.09;4100245;28;20063;-67
2022/09/06 03:12:12;;;;;;;2.70;1.95;;;;;;;21.66;58.69;100704.03;4099876;28;20090;-67
2022/09/06 03:14:15;;;;;;;7.15;2.47;;;;;;;21.67;58.55;100689.88;4100272;29;20047;-67
2022/09/06 03:16:19;;;;;;;3.55;1.92;;;;;;;21.71;58.60;100670.34;4099858;28;20042;-67
2022/09/06 03:18:22;;;;;;;4.83;2.20;;;;;;;21.76;58.72;100642.00;4131559;28;20030;-67
2022/09/06 03:20:27;;;;;;;3.28;2.17;;;;;;;21.86;58.36;100624.94;4099362;28;20046;-67
2022/09/06 03:22:29;;;;;;;;;;;;;;;21.74;58.39;100615.59;4100759;29;20472;-67
2022/09/06 03:24:32;;;;;;;4.22;1.88;;;;;;;21.65;58.03;100601.75;4100215;29;19958;-68
2022/09/06 03:26:35;;;;;;;4.75;2.00;;;;;;;21.65;57.95;100591.16;4099662;28;20039;-67
2022/09/06 03:28:38;;;;;;;4.10;2.40;;;;;;;21.66;57.52;100598.19;4099254;29;20039;-67
2022/09/06 03:30:45;;;;;;;4.38;2.00;;;;;;;21.59;57.69;100616.03;4099018;28;20039;-67
2022/09/06 03:32:47;;;;;;;4.20;2.35;;;;;;;21.57;57.34;100621.34;4099126;29;20126;-67
2022/09/06 03:34:50;;;;;;;3.17;2.05;;;;;;;21.60;57.06;100617.75;4092042;29;20036;-67
2022/09/06 03:36:55;;;;;;;4.20;2.42;;;;;;;21.56;57.22;100616.13;4100440;28;20579;-67
2022/09/06 03:38:57;;;;;;;;;;;;;;;21.41;57.76;100609.47;4098289;29;20039;-68
2022/09/06 03:41:00;;;;;;;3.42;1.70;;;;;;;21.49;58.03;100614.53;4098433;28;20009;-67
2022/09/06 03:43:03;;;;;;;3.22;1.95;;;;;;;21.47;57.78;100611.91;4099257;28;20058;-68
2022/09/06 03:45:07;;;;;;;4.82;2.03;;;;;;;21.38;57.95;100617.47;4099964;29;20043;-68
2022/09/06 03:47:14;;;;;;;4.57;2.40;;;;;;;21.21;58.63;100621.44;4098722;28;20126;-68
2022/09/06 03:49:34;;;;;;;3.60;2.13;;;;;;;21.25;58.42;100611.66;4098278;29;20098;-68
2022/09/06 03:51:37;;;;;;;4.80;2.20;;;;;;;21.26;58.37;100606.34;4097863;29;20039;-67
2022/09/06 03:53:41;;;;;;;7.47;2.70;;;;;;;21.27;58.63;100594.84;4124524;28;20042;-67
2022/09/06 03:55:45;;;;;;;6.70;2.53;;;;;;;21.26;58.58;100587.81;4098795;29;20057;-68
2022/09/06 03:57:51;;;;;;;4.82;2.33;;;;;;;21.06;58.96;100598.09;4097668;29;20067;-67
2022/09/06 03:59:54;;;;;;;5.07;2.20;;;;;;;21.00;58.83;100600.91;4092314;29;20502;-70
2022/09/06 04:01:57;;;;;;;4.43;2.03;;;;;;;21.05;59.03;100606.91;4097359;28;20045;-68
2022/09/06 04:04:01;;;;;;;6.72;2.72;;;;;;;21.07;58.91;100602.44;4111724;28;20070;-68
2022/09/06 04:06:05;;;;;;;3.97;2.28;;;;;;;21.11;58.67;100606.75;4100144;28;20118;-67
2022/09/06 04:08:08;;;;;;;;;;;;;;;20.95;59.04;100621.28;4125811;28;20137;-68
2022/09/06 04:10:12;;;;;;;4.03;2.75;;;;;;;20.89;59.14;100627.59;4129063;28;20640;-67
2022/09/06 04:12:15;;;;;;;;;;;;;;;20.67;59.74;100635.19;4098553;28;20138;-67
2022/09/06 04:14:18;;;;;;;5.93;2.40;;;;;;;20.77;59.79;100627.91;4101133;28;20348;-67
2022/09/06 04:16:21;;;;;;;4.63;2.40;;;;;;;20.86;59.66;100615.31;4098498;29;20133;-67
2022/09/06 04:18:24;;;;;;;5.63;2.50;;;;;;;20.88;59.64;100620.56;4099758;28;20512;-68
2022/09/06 04:20:27;;;;;;;3.85;2.38;;;;;;;20.88;59.47;100617.91;4099009;28;20054;-68
2022/09/06 04:22:30;;;;;;;4.32;2.10;;;;;;;20.80;59.74;100619.91;4098318;28;20035;-68
2022/09/06 04:24:33;;;;;;;8.82;2.72;;;;;;;20.78;59.68;100622.59;4097123;29;20043;-68
2022/09/06 04:26:38;;;;;;;7.35;2.55;;;;;;;20.79;59.85;100619.03;4130492;28;20176;-68
2022/09/06 04:28:40;;;;;;;5.07;2.63;;;;;;;20.79;60.06;100621.66;4098172;28;20063;-68
2022/09/06 04:30:44;;;;;;;3.15;2.45;;;;;;;20.76;60.15;100624.38;4099762;28;20050;-68
2022/09/06 04:32:47;;;;;;;4.40;2.13;;;;;;;20.72;60.61;100622.72;4099694;28;20126;-68
2022/09/06 04:34:50;;;;;;;4.43;2.33;;;;;;;20.69;60.68;100628.09;4130211;28;20046;-68
2022/09/06 04:36:52;;;;;;;4.07;2.38;;;;;;;20.69;61.00;100638.66;4099752;29;20134;-66
2022/09/06 04:38:55;;;;;;;6.15;2.85;;;;;;;20.72;61.16;100635.94;4099354;28;20051;-68
2022/09/06 04:40:58;;;;;;;5.10;2.58;;;;;;;20.73;61.24;100635.03;4098249;29;20132;-68
2022/09/06 04:43:04;;;;;;;8.98;3.85;;;;;;;20.71;61.99;100626.31;4099622;28;20150;-68
2022/09/06 04:45:17;;;;;;;11.85;3.75;;;;;;;20.72;61.90;100628.91;4099490;28;20497;-68
2022/09/06 04:47:26;;;;;;;9.25;2.55;;;;;;;20.66;62.10;100625.50;4098449;29;20063;-68
2022/09/06 04:49:35;;;;;;;8.20;3.75;;;;;;;20.54;62.63;100630.16;4099168;28;20489;-69
2022/09/06 04:51:45;;;;;;;9.65;2.90;;;;;;;20.49;62.95;100631.22;4130289;28;20072;-68
2022/09/06 04:53:51;;;;;;;4.95;2.50;;;;;;;20.44;63.53;100639.22;4082221;29;20047;-68
2022/09/06 04:56:01;;;;;;;8.07;3.07;;;;;;;20.35;63.70;100636.81;4083757;29;20474;-66
2022/09/06 04:58:12;;;;;;;4.47;2.47;;;;;;;20.31;63.86;100636.03;4086061;28;20051;-68
2022/09/06 05:00:20;;;;;;;4.63;2.55;;;;;;;20.33;64.17;100630.72;4099254;28;20035;-68
2022/09/06 05:02:23;;;;;;;6.15;2.95;;;;;;;20.33;64.05;100633.34;4098282;29;20497;-68
2022/09/06 05:04:29;;;;;;;5.90;2.70;;;;;;;20.35;64.27;100634.16;4129973;28;20089;-68
2022/09/06 05:06:32;;;;;;;6.70;3.00;;;;;;;20.37;64.31;100640.28;4099365;28;20130;-68
2022/09/06 05:08:41;;;;;;;11.85;3.38;;;;;;;20.40;64.43;100642.88;4081988;29;20110;-68
2022/09/06 05:10:44;;;;;;;10.82;3.70;;;;;;;20.41;64.21;100634.00;4099307;29;20101;-68
2022/09/06 05:12:49;;;;;;;12.55;4.60;;;;;;;20.39;64.54;100636.69;4099425;29;20043;-68
2022/09/06 05:14:53;;;;;;;12.15;4.00;;;;;;;20.36;64.25;100633.28;4097811;29;20106;-68
2022/09/06 05:17:03;;;;;;;15.25;5.10;;;;;;;20.27;64.58;100638.75;4099237;28;20413;-68
2022/09/06 05:19:06;;;;;;;15.25;4.72;;;;;;;20.20;64.91;100636.25;4098968;28;20130;-68
2022/09/06 05:21:09;;;;;;;9.82;3.92;;;;;;;20.24;64.55;100639.72;4099192;29;20047;-68
2022/09/06 05:23:20;;;;;;;9.10;4.13;;;;;;;20.19;64.75;100637.19;4097976;29;20142;-68
2022/09/06 05:25:34;;;;;;;10.40;4.10;;;;;;;20.23;64.78;100638.81;4098235;29;20488;-68
2022/09/06 05:27:38;;;;;;;10.20;4.25;;;;;;;20.29;64.74;100644.88;4099086;28;20035;-68
2022/09/06 05:29:41;;;;;;;10.65;3.67;;;;;;;20.24;64.89;100639.72;4099266;28;20398;-68
2022/09/06 05:31:45;;;;;;;13.77;4.35;;;;;;;20.20;65.00;100640.69;4099861;28;20058;-68
2022/09/06 05:33:48;;;;;;;9.27;3.63;;;;;;;20.18;65.05;100648.63;4116959;28;20551;-68
2022/09/06 05:35:51;;;;;;;6.38;3.17;;;;;;;20.16;65.05;100650.44;4102042;28;20051;-68
2022/09/06 05:37:54;;;;;;;5.40;2.58;;;;;;;20.14;65.27;100646.09;4095006;29;20046;-68
2022/09/06 05:39:58;;;;;;;4.90;3.15;;;;;;;20.14;65.26;100644.31;4102201;29;20047;-68
2022/09/06 05:42:05;;;;;;;5.53;3.03;;;;;;;20.15;65.37;100653.09;4101016;29;20380;-68
2022/09/06 05:44:10;;;;;;;6.40;3.42;;;;;;;20.19;65.10;100649.50;4100812;29;20049;-68
2022/09/06 05:46:17;;;;;;;4.65;2.70;;;;;;;20.20;65.43;100657.38;4100777;28;20039;-68
2022/09/06 05:48:21;;;;;;;5.63;2.90;;;;;;;20.23;65.49;100657.31;4102093;28;20039;-68
2022/09/06 05:50:24;;;;;;;5.93;3.15;;;;;;;20.32;65.25;100655.38;4102068;28;20036;-68
2022/09/06 05:52:27;;;;;;;4.30;2.92;;;;;;;20.36;64.96;100662.31;4102029;28;20039;-69
2022/09/06 05:54:30;;;;;;;7.43;3.30;;;;;;;20.38;65.22;100665.78;4100515;29;20043;-68
2022/09/06 05:56:33;;;;;;;7.70;3.30;;;;;;;20.38;64.97;100666.66;4102056;28;20039;-68
2022/09/06 05:58:38;;;;;;;6.65;2.40;;;;;;;20.41;65.08;100665.69;4100699;29;20067;-68
2022/09/06 06:00:40;;;;;;;5.85;2.92;;;;;;;20.33;65.11;100663.25;4101799;28;20039;-68
2022/09/06 06:02:46;;;;;;;7.40;2.88;;;;;;;20.30;65.56;100673.88;4101912;28;20065;-68
2022/09/06 06:04:51;;;;;;;6.80;3.50;;;;;;;20.35;65.38;100671.13;4084504;29;20044;-68
2022/09/06 06:06:57;;;;;;;8.57;3.92;;;;;;;20.37;65.42;100671.97;4101806;28;20059;-68
2022/09/06 06:09:00;;;;;;;7.22;3.50;;;;;;;20.42;65.23;100683.28;4101713;28;20043;-68
2022/09/06 06:11:03;;;;;;;8.75;4.05;;;;;;;20.51;65.18;100683.06;4101830;28;20472;-68
2022/09/06 06:13:06;;;;;;;3.83;2.65;;;;;;;20.54;64.98;100677.72;4100394;29;20051;-68
2022/09/06 06:15:10;;;;;;;6.75;3.50;;;;;;;20.52;65.07;100679.53;4130734;28;20065;-68
2022/09/06 06:17:12;;;;;;;5.60;3.55;;;;;;;20.51;65.23;100691.00;4101589;28;20125;-68
2022/09/06 06:19:16;;;;;;;8.88;3.47;;;;;;;20.53;65.07;100697.13;4100368;29;20122;-68
2022/09/06 06:21:21;;;;;;;5.57;3.33;;;;;;;20.53;65.30;100705.06;4132506;28;20050;-68
2022/09/06 06:23:24;;;;;;;5.57;3.53;;;;;;;20.60;65.21;100696.97;4101148;28;20122;-68
2022/09/06 06:25:27;;;;;;;6.90;2.92;;;;;;;20.55;64.90;100705.88;4101505;28;20039;-68
2022/09/06 06:27:32;;;;;;;11.38;3.67;;;;;;;20.54;64.98;100709.41;4101600;28;20047;-68
2022/09/06 06:29:35;;;;;;;4.97;3.30;;;;;;;20.67;64.59;100707.38;4101642;28;20122;-68
2022/09/06 06:31:38;;;;;;;5.82;3.50;;;;;;;20.62;64.85;100709.25;4101590;28;20036;-68
2022/09/06 06:33:42;;;;;;;9.43;3.78;;;;;;;20.68;64.88;100716.19;4099622;28;20038;-68
2022/09/06 06:35:56;;;;;;;10.77;3.60;;;;;;;20.73;64.74;100709.91;4099916;28;20055;-68
2022/09/06 06:38:00;;;;;;;4.97;3.17;;;;;;;20.70;64.74;100706.44;4125499;28;20408;-68
2022/09/06 06:40:04;;;;;;;7.97;3.95;;;;;;;20.73;65.04;100709.91;4101330;28;20511;-68
2022/09/06 06:42:07;;;;;;;8.25;4.15;;;;;;;20.71;64.83;100706.41;4084298;29;20521;-68
2022/09/06 06:44:24;;;;;;;5.38;3.35;;;;;;;20.73;64.90;100709.03;4097975;28;20124;-68
2022/09/06 06:46:29;;;;;;;7.70;3.60;;;;;;;20.67;65.58;100711.81;4101315;28;20039;-68
2022/09/06 06:48:32;;;;;;;9.45;4.05;;;;;;;20.77;65.57;100713.31;4101249;28;20146;-68
2022/09/06 06:50:34;;;;;;;4.32;2.90;;;;;;;20.73;65.17;100714.31;4101476;28;20568;-68
2022/09/06 06:52:38;;;;;;;6.05;3.83;;;;;;;20.75;64.98;100708.09;4100449;28;20082;-68
2022/09/06 06:54:42;;;;;;;6.78;3.35;;;;;;;20.88;64.92;100713.06;4130431;28;20045;-67
2022/09/06 06:56:45;;;;;;;7.53;3.83;;;;;;;20.88;64.57;100713.94;4099890;29;20111;-68
2022/09/06 06:58:51;;;;;;;6.53;3.65;;;;;;;21.00;64.30;100707.47;4115872;28;20126;-68
2022/09/06 07:00:54;;;;;;;4.50;3.20;;;;;;;21.03;64.27;100714.47;4101165;28;20457;-67
2022/09/06 07:02:58;;;;;;;5.78;3.47;;;;;;;21.00;64.26;100715.41;4099510;28;20055;-69
2022/09/06 07:05:01;;;;;;;8.82;3.90;;;;;;;20.97;63.84;100706.66;4100253;28;20082;-68
2022/09/06 07:07:04;;;;;;;6.28;3.35;;;;;;;20.98;63.90;100709.28;4101422;29;20047;-69
2022/09/06 07:09:27;;;;;;;4.72;3.13;;;;;;;21.01;63.90;100710.97;4083627;29;20055;-68
2022/09/06 07:11:51;;;;;;;5.40;3.83;;;;;;;21.00;63.46;100704.84;4115826;28;20049;-69
2022/09/06 07:13:54;;;;;;;6.20;3.63;;;;;;;21.16;62.95;100705.31;4098505;28;20441;-67
2022/09/06 07:16:15;;;;;;;6.72;3.17;;;;;;;21.16;63.26;100707.06;4099239;28;20055;-67
2022/09/06 07:18:18;;;;;;;7.35;3.70;;;;;;;21.20;63.19;100706.97;4100690;29;20612;-68
2022/09/06 07:20:21;;;;;;;6.65;4.13;;;;;;;21.36;62.38;100703.91;4100705;28;20127;-68
2022/09/06 07:22:24;;;;;;;5.88;3.83;;;;;;;21.26;62.36;100704.16;4083725;29;20511;-67
2022/09/06 07:24:27;;;;;;;4.78;3.67;;;;;;;21.20;62.64;100704.34;4100266;28;20062;-67
2022/09/06 07:26:30;;;;;;;7.80;4.25;;;;;;;21.32;62.63;100712.84;4099375;29;20039;-67
2022/09/06 07:28:35;;;;;;;6.93;4.28;;;;;;;21.37;62.26;100716.25;4099629;29;20143;-67
2022/09/06 07:30:38;;;;;;;6.47;3.75;;;;;;;21.41;62.10;100718.75;4100523;28;20051;-67
2022/09/06 07:32:41;;;;;;;5.18;3.90;;;;;;;21.28;62.59;100715.56;4100484;28;20497;-67
2022/09/06 07:34:44;;;;;;;6.70;3.83;;;;;;;21.27;62.50;100708.56;4099808;28;20523;-67
2022/09/06 07:36:47;;;;;;;4.50;3.35;;;;;;;21.32;62.58;100702.25;4100492;29;20043;-67
2022/09/06 07:38:50;;;;;;;5.88;3.92;;;;;;;21.32;62.26;100704.91;4099285;28;20039;-67
2022/09/06 07:40:54;;;;;;;6.65;4.00;;;;;;;21.43;62.39;100710.78;4084670;28;20044;-67
2022/09/06 07:42:57;;;;;;;6.80;4.30;;;;;;;21.49;61.92;100704.47;4098775;28;20039;-67
2022/09/06 07:45:01;;;;;;;9.50;4.65;;;;;;;21.58;61.49;100698.94;4098657;28;20051;-67
2022/09/06 07:47:05;;;;;;;5.18;3.40;;;;;;;21.48;61.43;100703.59;4100464;28;20042;-67
2022/09/06 07:49:28;;;;;;;6.03;3.88;;;;;;;21.46;61.51;100702.75;4131080;28;20050;-67
2022/09/06 07:51:36;;;;;;;5.00;3.35;;;;;;;21.45;61.52;100701.03;4100346;28;20043;-69
2022/09/06 07:53:41;;;;;;;5.20;3.22;;;;;;;21.42;61.56;100706.38;4099939;29;20047;-67
2022/09/06 07:55:43;;;;;;;;;;;;;;;21.48;61.77;100711.53;4098383;28;20035;-67
2022/09/06 07:57:46;;;;;;;6.05;3.40;;;;;;;21.50;61.58;100716.78;4130316;28;19925;-67
2022/09/06 07:59:50;;;;;;;7.93;3.28;;;;;;;21.55;61.50;100715.78;4084556;28;20047;-67
2022/09/06 08:01:54;;;;;;;7.65;3.50;;;;;;;21.55;61.48;100715.78;4095331;28;20524;-66
2022/09/06 08:03:58;;;;;;;5.15;3.13;;;;;;;21.61;61.27;100709.44;4099742;28;20493;-66
2022/09/06 08:06:02;;;;;;;5.82;3.65;;;;;;;21.82;60.10;100707.13;4099996;28;20493;-66
2022/09/06 08:08:12;;;;;;;7.57;3.70;;;;;;;21.69;60.47;100711.88;4098926;29;20150;-66
2022/09/06 08:10:35;;;;;;;4.82;3.35;;;;;;;21.70;60.08;100714.50;4100355;28;20510;-66
2022/09/06 08:12:38;;;;;;;5.32;3.67;;;;;;;21.61;60.40;100718.25;4098422;29;20086;-66
2022/09/06 08:14:41;;;;;;;4.55;3.30;;;;;;;21.55;60.46;100715.78;4098288;29;20437;-66
2022/09/06 08:16:44;;;;;;;4.93;3.63;;;;;;;21.47;60.57;100723.03;4099814;28;20039;-66
2022/09/06 08:18:52;;;;;;;7.63;3.22;;;;;;;21.55;60.85;100725.47;4099206;28;20043;-66
2022/09/06 08:20:55;;;;;;;6.05;3.80;;;;;;;21.64;60.62;100721.72;4123296;28;20043;-69
2022/09/06 08:22:58;;;;;;;5.70;3.03;;;;;;;21.67;60.74;100719.88;4099642;28;20043;-67
2022/09/06 08:25:01;;;;;;;6.50;3.60;;;;;;;21.72;60.42;100725.03;4099537;28;20497;-66
2022/09/06 08:27:06;;;;;;;3.92;3.13;;;;;;;21.82;59.76;100713.28;4099308;28;20045;-67
2022/09/06 08:29:10;;;;;;;7.13;3.25;;;;;;;21.95;59.83;100717.28;4099635;28;20134;-67
2022/09/06 08:31:15;;;;;;;6.90;3.28;;;;;;;22.11;58.96;100708.91;4099922;29;20045;-67
2022/09/06 08:33:20;;;;;;;7.13;3.08;;;;;;;22.18;58.87;100713.13;4099350;29;20044;-67
2022/09/06 08:35:24;;;;;;;5.00;3.30;;;;;;;22.20;58.85;100713.06;4098535;28;20050;-67
2022/09/06 08:37:27;;;;;;;8.02;3.92;;;;;;;22.17;58.50;100713.16;4098011;28;20044;-67
2022/09/06 08:39:30;;;;;;;6.28;3.58;;;;;;;22.32;57.94;100715.38;4099473;28;20094;-67
2022/09/06 08:41:45;;;;;;;8.18;4.10;;;;;;;22.63;56.85;100710.00;4099487;29;20485;-67
2022/09/06 08:43:52;;;;;;;7.65;3.65;;;;;;;22.60;57.61;100707.41;4097688;28;20043;-67
2022/09/06 08:46:17;;;;;;;5.50;3.17;;;;;;;22.73;57.27;100707.03;4094911;29;20042;-67
2022/09/06 08:48:21;;;;;;;4.00;2.80;;;;;;;22.75;57.58;100699.88;4099512;28;20437;-67
2022/09/06 08:50:28;;;;;;;3.83;3.15;;;;;;;22.80;57.46;100697.97;4099272;28;20035;-67
2022/09/06 08:52:58;;;;;;;13.18;3.20;;;;;;;22.89;57.11;100702.09;4099125;28;20038;-67
2022/09/06 08:55:30;;;;;;;5.68;3.80;;;;;;;23.14;56.11;100694.19;4078226;29;20075;-67
2022/09/06 08:57:41;;;;;;;;;;;;;;;23.05;56.70;100691.84;4098729;29;20058;-67
2022/09/06 08:59:44;;;;;;;4.70;2.78;;;;;;;23.16;56.71;100684.44;4099432;28;19923;-67
2022/09/06 09:01:58;;;;;;;8.63;3.63;;;;;;;23.32;55.98;100677.66;4099144;29;20066;-67
2022/09/06 09:04:04;;;;;;;;;;;;;;;23.29;55.82;100680.41;4099456;29;20090;-67
2022/09/06 09:06:09;;;;;;;8.02;3.25;;;;;;;23.27;55.99;100679.59;4099046;28;20013;-67
2022/09/06 09:08:21;;;;;;;5.35;2.78;;;;;;;23.47;55.84;100681.53;4097994;28;20075;-67
2022/09/06 09:10:28;;;;;;;9.57;3.58;;;;;;;23.58;55.80;100683.78;4099150;28;20126;-67
2022/09/06 09:12:35;;;;;;;4.97;2.97;;;;;;;23.72;55.22;100677.13;4097967;29;20102;-66
2022/09/06 09:14:41;;;;;;;7.38;2.92;;;;;;;23.69;54.99;100667.50;4081867;29;20054;-67
2022/09/06 09:16:44;;;;;;;5.85;2.97;;;;;;;23.66;55.17;100668.47;4092577;28;20031;-67
2022/09/06 09:18:51;;;;;;;6.15;3.00;;;;;;;23.79;55.06;100668.03;4099581;29;20074;-67
2022/09/06 09:20:54;;;;;;;4.70;2.75;;;;;;;23.87;54.72;100661.53;4098100;29;20053;-67
2022/09/06 09:22:59;;;;;;;6.40;3.10;;;;;;;23.94;54.85;100658.63;4113896;28;20511;-67
2022/09/06 09:25:02;;;;;;;6.28;3.03;;;;;;;24.02;54.84;100660.06;4098798;29;20050;-67
2022/09/06 09:27:09;;;;;;;5.57;2.80;;;;;;;24.07;54.56;100662.53;4097559;28;20150;-68
2022/09/06 09:29:14;;;;;;;5.32;3.30;;;;;;;24.35;53.46;100664.97;4099032;28;20441;-67
2022/09/06 09:31:33;;;;;;;5.43;2.85;;;;;;;24.36;53.40;100665.84;4097959;29;20046;-67
2022/09/06 09:33:38;;;;;;;7.47;3.25;;;;;;;24.28;53.22;100660.81;4098987;28;20513;-67
2022/09/06 09:35:41;;;;;;;9.15;2.92;;;;;;;24.33;53.43;100665.97;4098869;28;20035;-67
2022/09/06 09:37:45;;;;;;;5.85;2.95;;;;;;;24.40;53.22;100655.03;4099207;28;20039;-67
2022/09/06 09:39:53;;;;;;;9.70;3.63;;;;;;;24.59;52.90;100651.66;4099043;28;20102;-68
2022/09/06 09:41:56;;;;;;;5.93;2.75;;;;;;;24.58;53.11;100656.06;4099067;28;20063;-67
2022/09/06 09:44:02;;;;;;;13.10;3.50;;;;;;;24.64;53.19;100656.78;4098699;28;20390;-67
2022/09/06 09:46:16;;;;;;;6.65;3.50;;;;;;;24.83;52.67;100649.75;4098963;28;20047;-67
2022/09/06 09:48:23;;;;;;;5.80;2.97;;;;;;;24.87;52.70;100648.69;4099058;29;20043;-67